Hrossey — VSTY6 — position and weather

sailwx.info

Track history (hours):
 
Tides and Currents Weather Stations Pressure Air Temp Water Temp Dewpoint Dewpoint Depression Visibility Wind Speed Wind Dir Waves Ship Positions

Hrossey

Operator: NorthLink Orkey & Shetland Ferries Ltd

Last reported at 2017-Nov-20 00:30 UTC. Time now 2017-Nov-21 08:19 UTC.
Position N 59°00' W 002°39'.

Length 125 m; draft 5.4 m.

Type: Passenger vessel. MMSI: 235448000.

Date/timePositionNaut miles runAvg speedWind from/ knotsBaromVisibWave heightAir tempDewpointWater temp
2017-Nov-20 00:30N 59°00' W 002°39'612.9
2017-Nov-20 00:00N 59°01' W 002°52'3 3.1
2017-Nov-19 22:53N 58°60' W 002°58'512.2
2017-Nov-19 22:30N 59°00' W 002°49'7521.9
2017-Nov-19 19:04N 57°52' W 001°49'223.1
2017-Nov-19 19:00N 57°51' W 001°48'1223.8
2017-Nov-19 18:30N 57°39' W 001°42'1223.3
2017-Nov-19 18:00N 57°27' W 001°42'1224.5
2017-Nov-19 17:30N 57°17' W 001°53'1020.1
2017-Nov-19 17:00N 57°09' W 002°04'1 1.8
2017-Nov-19 16:30N 57°09' W 002°05'0 0.0
2017-Nov-19 16:00N 57°09' W 002°05'0 0.0
2017-Nov-19 15:30N 57°09' W 002°05'0 0.0
2017-Nov-19 15:00N 57°09' W 002°05'0 0.0
2017-Nov-19 14:30N 57°09' W 002°05'0 0.0
2017-Nov-19 14:00N 57°09' W 002°05'0 0.0
2017-Nov-19 13:30N 57°09' W 002°05'0 0.0
2017-Nov-19 13:00N 57°09' W 002°05'0 0.0
2017-Nov-19 12:30N 57°09' W 002°05'0 0.0
2017-Nov-19 12:00N 57°09' W 002°05'0 0.0
2017-Nov-19 11:30N 57°09' W 002°05'0 0.0
2017-Nov-19 11:00N 57°09' W 002°05'0 0.0
2017-Nov-19 10:30N 57°09' W 002°05'0 0.0
2017-Nov-19 10:00N 57°09' W 002°05'0 0.0
2017-Nov-19 09:30N 57°09' W 002°05'0 0.0
2017-Nov-19 09:00N 57°09' W 002°05'0 0.0
2017-Nov-19 08:30N 57°09' W 002°05'0 0.0
2017-Nov-19 08:00N 57°09' W 002°05'0 0.0
2017-Nov-19 07:30N 57°09' W 002°05'0 0.0
2017-Nov-19 07:00N 57°09' W 002°05'1 1.3
2017-Nov-19 06:30N 57°08' W 002°04'713.4
2017-Nov-19 06:00N 57°13' W 001°56'1415.6
2017-Nov-19 05:07N 57°25' W 001°42'215.5
2017-Nov-19 05:00N 57°27' W 001°42'815.6
2017-Nov-19 04:30N 57°35' W 001°40'816.3
2017-Nov-19 04:00N 57°43' W 001°39'13 0.4
2017-Nov-17 21:27N 57°54' W 001°51'919.6
2017-Nov-17 21:00N 57°46' W 001°44'1121.2
2017-Nov-17 20:30N 57°36' W 001°39'1820.9
2017-Nov-17 19:37N 57°18' W 001°49'323.5
2017-Nov-17 19:30N 57°16' W 001°52'1019.6
2017-Nov-17 19:00N 57°09' W 002°04'1 1.8
2017-Nov-17 18:30N 57°09' W 002°05'0 0.0
2017-Nov-17 18:00N 57°09' W 002°05'0 0.0
2017-Nov-17 17:30N 57°09' W 002°05'0 0.0
2017-Nov-17 17:00N 57°09' W 002°05'0 0.0
2017-Nov-17 16:30N 57°09' W 002°05'0 0.0
2017-Nov-17 16:00N 57°09' W 002°05'0 0.0
2017-Nov-17 15:30N 57°09' W 002°05'0 0.0
2017-Nov-17 15:00N 57°09' W 002°05'0 0.0
2017-Nov-17 14:30N 57°09' W 002°05'0 0.0
2017-Nov-17 14:00N 57°09' W 002°05'0 0.0
2017-Nov-17 13:30N 57°09' W 002°05'0 0.0
2017-Nov-17 13:00N 57°09' W 002°05'0 0.0
2017-Nov-17 12:30N 57°09' W 002°05'0 0.0
2017-Nov-17 12:00N 57°09' W 002°05'0 0.0
2017-Nov-17 11:30N 57°09' W 002°05'0 0.0
2017-Nov-17 11:00N 57°09' W 002°05'0 0.0
2017-Nov-17 10:30N 57°09' W 002°05'0 0.0
2017-Nov-17 10:00N 57°09' W 002°05'0 0.0
2017-Nov-17 09:30N 57°09' W 002°05'0 0.0
2017-Nov-17 09:00N 57°09' W 002°05'0 0.0
2017-Nov-17 08:30N 57°09' W 002°05'0 0.0
2017-Nov-17 08:00N 57°09' W 002°05'0 0.0
2017-Nov-17 07:30N 57°09' W 002°05'0 0.0
2017-Nov-17 07:00N 57°09' W 002°05'0 0.9
2017-Nov-17 06:30N 57°09' W 002°05'510.6
2017-Nov-17 06:00N 57°12' W 001°57'2212.9
2017-Nov-17 04:19N 57°30' W 001°36'613.5
2017-Nov-17 03:53N 57°36' W 001°37'513.3
2017-Nov-17 03:30N 57°41' W 001°42'713.6
2017-Nov-17 03:00N 57°44' W 001°53'12 0.4
2017-Nov-15 22:04N 57°52' W 001°37'113.4
2017-Nov-15 22:00N 57°51' W 001°37'713.1
2017-Nov-15 21:30N 57°44' W 001°37'612.9
2017-Nov-15 21:00N 57°38' W 001°37'613.0
2017-Nov-15 20:30N 57°31' W 001°37'1517.0
2017-Nov-15 19:39N 57°18' W 001°50'318.9
2017-Nov-15 19:30N 57°16' W 001°53'918.3
2017-Nov-15 19:00N 57°09' W 002°03'1 2.8
2017-Nov-15 18:30N 57°09' W 002°05'0 0.0
2017-Nov-15 18:00N 57°09' W 002°05'0 0.0
2017-Nov-15 17:30N 57°09' W 002°05'0 0.0
2017-Nov-15 17:00N 57°09' W 002°05'0 0.0
2017-Nov-15 16:30N 57°09' W 002°05'0 0.0
2017-Nov-15 16:00N 57°09' W 002°05'0 0.0
2017-Nov-15 15:30N 57°09' W 002°05'0 0.0
2017-Nov-15 15:00N 57°09' W 002°05'0 0.0
2017-Nov-15 14:30N 57°09' W 002°05'0 0.0
2017-Nov-15 14:00N 57°09' W 002°05'0 0.0
2017-Nov-15 13:30N 57°09' W 002°05'0 0.0
2017-Nov-15 13:00N 57°09' W 002°05'0 0.0
2017-Nov-15 12:30N 57°09' W 002°05'0 0.0
2017-Nov-15 12:00N 57°09' W 002°05'0 0.0
2017-Nov-15 11:30N 57°09' W 002°05'0 0.0
2017-Nov-15 11:00N 57°09' W 002°05'0 0.0
2017-Nov-15 10:30N 57°09' W 002°05'0 0.0
2017-Nov-15 10:00N 57°09' W 002°05'0 0.0
2017-Nov-15 09:30N 57°09' W 002°05'0 0.0
2017-Nov-15 09:00N 57°09' W 002°05'0 0.0
2017-Nov-15 08:30N 57°09' W 002°05'0 0.0
2017-Nov-15 08:00N 57°09' W 002°05'0 0.0
2017-Nov-15 07:30N 57°09' W 002°05'0 0.0
2017-Nov-15 07:00N 57°09' W 002°05'1 1.3
2017-Nov-15 06:30N 57°08' W 002°04'713.0
2017-Nov-15 06:00N 57°13' W 001°56'815.9
2017-Nov-15 05:29N 57°20' W 001°47'715.6
2017-Nov-15 05:00N 57°27' W 001°41'816.0
2017-Nov-15 04:30N 57°35' W 001°39'17 0.6
2017-Nov-13 22:18N 57°52' W 001°37'514.5
2017-Nov-13 21:59N 57°47' W 001°37'81 1.8
2017-Nov-12 01:41N 59°04' W 002°28'213.8
2017-Nov-12 01:30N 59°02' W 002°31'612.8
2017-Nov-12 01:00N 59°00' W 002°43'714.2
2017-Nov-12 00:30N 59°01' W 002°56'2 3.2
2017-Nov-11 23:57N 58°60' W 002°58'0 0.0
2017-Nov-11 23:30N 58°60' W 002°58'0 0.3
2017-Nov-11 23:00N 58°60' W 002°58'917.7
2017-Nov-11 22:30N 58°59' W 002°41'7222.2
2017-Nov-11 19:17N 57°52' W 001°55'621.1
2017-Nov-11 19:00N 57°46' W 001°52'1020.5
2017-Nov-11 18:30N 57°36' W 001°45'1020.9
2017-Nov-11 18:00N 57°26' W 001°44'1122.1
2017-Nov-11 17:30N 57°16' W 001°52'1019.6
2017-Nov-11 17:00N 57°08' W 002°04'1 1.4
2017-Nov-11 16:30N 57°09' W 002°05'0 0.0
2017-Nov-11 16:00N 57°09' W 002°05'0 0.0
2017-Nov-11 15:30N 57°09' W 002°05'0 0.0
2017-Nov-11 15:00N 57°09' W 002°05'0 0.0
2017-Nov-11 14:30N 57°09' W 002°05'0 0.0
2017-Nov-11 14:00N 57°09' W 002°05'0 0.0
2017-Nov-11 13:30N 57°09' W 002°05'0 0.0
2017-Nov-11 13:00N 57°09' W 002°05'0 0.0
2017-Nov-11 12:30N 57°09' W 002°05'0 0.0
2017-Nov-11 12:00N 57°09' W 002°05'0 0.0
2017-Nov-11 11:30N 57°09' W 002°05'0 0.0
2017-Nov-11 11:00N 57°09' W 002°05'0 0.0
2017-Nov-11 10:30N 57°09' W 002°05'0 0.0
2017-Nov-11 10:00N 57°09' W 002°05'0 0.0
2017-Nov-11 09:30N 57°09' W 002°05'0 0.0
2017-Nov-11 09:00N 57°09' W 002°05'0 0.0
2017-Nov-11 08:30N 57°09' W 002°05'0 0.0
2017-Nov-11 08:00N 57°09' W 002°05'0 0.0
2017-Nov-11 07:30N 57°09' W 002°05'0 0.0
2017-Nov-11 07:00N 57°09' W 002°05'1 1.5
2017-Nov-11 06:30N 57°09' W 002°04'510.7
2017-Nov-11 06:00N 57°12' W 001°57'916.1
2017-Nov-11 05:27N 57°20' W 001°48'918.4
2017-Nov-11 04:58N 57°27' W 001°39'918.9
2017-Nov-11 04:28N 57°36' W 001°41'1118.3
2017-Nov-11 03:53N 57°47' W 001°45'7622.0
2017-Nov-11 00:25N 58°58' W 002°39'922.1
2017-Nov-11 00:00N 59°01' W 002°55'2 1.5
2017-Nov-10 22:39N 58°60' W 002°58'0 0.0
2017-Nov-10 22:05N 58°60' W 002°58'0 0.6
2017-Nov-10 22:00N 58°60' W 002°58'815.8
2017-Nov-10 21:30N 59°01' W 002°43'9 0.5
2017-Nov-10 02:39N 59°05' W 002°27'217.5
2017-Nov-10 02:30N 59°03' W 002°30'917.2
2017-Nov-10 02:00N 59°01' W 002°46'6 7.9
2017-Nov-10 01:12N 58°60' W 002°58'0 0.0
2017-Nov-10 00:59N 58°60' W 002°58'  
Track history (hours):
 
Tides and Currents Weather Stations Pressure Air Temp Water Temp Dewpoint Dewpoint Depression Visibility Wind Speed Wind Dir Waves Ship Positions

Hrossey

Operator: NorthLink Orkey & Shetland Ferries Ltd

Last reported at 2017-Nov-20 00:30 UTC. Time now 2017-Nov-21 08:19 UTC.
Position N 59°00' W 002°39'.

Length 125 m; draft 5.4 m.

Type: Passenger vessel. MMSI: 235448000.

Date/timePositionNaut miles runAvg speedWind from/ knotsBaromVisibWave heightAir tempDewpointWater temp
2017-Nov-20 00:30N 59°00' W 002°39'612.9
2017-Nov-20 00:00N 59°01' W 002°52'3 3.1
2017-Nov-19 22:53N 58°60' W 002°58'512.2
2017-Nov-19 22:30N 59°00' W 002°49'7521.9
2017-Nov-19 19:04N 57°52' W 001°49'223.1
2017-Nov-19 19:00N 57°51' W 001°48'1223.8
2017-Nov-19 18:30N 57°39' W 001°42'1223.3
2017-Nov-19 18:00N 57°27' W 001°42'1224.5
2017-Nov-19 17:30N 57°17' W 001°53'1020.1
2017-Nov-19 17:00N 57°09' W 002°04'1 1.8
2017-Nov-19 16:30N 57°09' W 002°05'0 0.0
2017-Nov-19 16:00N 57°09' W 002°05'0 0.0
2017-Nov-19 15:30N 57°09' W 002°05'0 0.0
2017-Nov-19 15:00N 57°09' W 002°05'0 0.0
2017-Nov-19 14:30N 57°09' W 002°05'0 0.0
2017-Nov-19 14:00N 57°09' W 002°05'0 0.0
2017-Nov-19 13:30N 57°09' W 002°05'0 0.0
2017-Nov-19 13:00N 57°09' W 002°05'0 0.0
2017-Nov-19 12:30N 57°09' W 002°05'0 0.0
2017-Nov-19 12:00N 57°09' W 002°05'0 0.0
2017-Nov-19 11:30N 57°09' W 002°05'0 0.0
2017-Nov-19 11:00N 57°09' W 002°05'0 0.0
2017-Nov-19 10:30N 57°09' W 002°05'0 0.0
2017-Nov-19 10:00N 57°09' W 002°05'0 0.0
2017-Nov-19 09:30N 57°09' W 002°05'0 0.0
2017-Nov-19 09:00N 57°09' W 002°05'0 0.0
2017-Nov-19 08:30N 57°09' W 002°05'0 0.0
2017-Nov-19 08:00N 57°09' W 002°05'0 0.0
2017-Nov-19 07:30N 57°09' W 002°05'0 0.0
2017-Nov-19 07:00N 57°09' W 002°05'1 1.3
2017-Nov-19 06:30N 57°08' W 002°04'713.4
2017-Nov-19 06:00N 57°13' W 001°56'1415.6
2017-Nov-19 05:07N 57°25' W 001°42'215.5
2017-Nov-19 05:00N 57°27' W 001°42'815.6
2017-Nov-19 04:30N 57°35' W 001°40'816.3
2017-Nov-19 04:00N 57°43' W 001°39'13 0.4
2017-Nov-17 21:27N 57°54' W 001°51'919.6
2017-Nov-17 21:00N 57°46' W 001°44'1121.2
2017-Nov-17 20:30N 57°36' W 001°39'1820.9
2017-Nov-17 19:37N 57°18' W 001°49'323.5
2017-Nov-17 19:30N 57°16' W 001°52'1019.6
2017-Nov-17 19:00N 57°09' W 002°04'1 1.8
2017-Nov-17 18:30N 57°09' W 002°05'0 0.0
2017-Nov-17 18:00N 57°09' W 002°05'0 0.0
2017-Nov-17 17:30N 57°09' W 002°05'0 0.0
2017-Nov-17 17:00N 57°09' W 002°05'0 0.0
2017-Nov-17 16:30N 57°09' W 002°05'0 0.0
2017-Nov-17 16:00N 57°09' W 002°05'0 0.0
2017-Nov-17 15:30N 57°09' W 002°05'0 0.0
2017-Nov-17 15:00N 57°09' W 002°05'0 0.0
2017-Nov-17 14:30N 57°09' W 002°05'0 0.0
2017-Nov-17 14:00N 57°09' W 002°05'0 0.0
2017-Nov-17 13:30N 57°09' W 002°05'0 0.0
2017-Nov-17 13:00N 57°09' W 002°05'0 0.0
2017-Nov-17 12:30N 57°09' W 002°05'0 0.0
2017-Nov-17 12:00N 57°09' W 002°05'0 0.0
2017-Nov-17 11:30N 57°09' W 002°05'0 0.0
2017-Nov-17 11:00N 57°09' W 002°05'0 0.0
2017-Nov-17 10:30N 57°09' W 002°05'0 0.0
2017-Nov-17 10:00N 57°09' W 002°05'0 0.0
2017-Nov-17 09:30N 57°09' W 002°05'0 0.0
2017-Nov-17 09:00N 57°09' W 002°05'0 0.0
2017-Nov-17 08:30N 57°09' W 002°05'0 0.0
2017-Nov-17 08:00N 57°09' W 002°05'0 0.0
2017-Nov-17 07:30N 57°09' W 002°05'0 0.0
2017-Nov-17 07:00N 57°09' W 002°05'0 0.9
2017-Nov-17 06:30N 57°09' W 002°05'510.6
2017-Nov-17 06:00N 57°12' W 001°57'2212.9
2017-Nov-17 04:19N 57°30' W 001°36'613.5
2017-Nov-17 03:53N 57°36' W 001°37'513.3
2017-Nov-17 03:30N 57°41' W 001°42'713.6
2017-Nov-17 03:00N 57°44' W 001°53'12 0.4
2017-Nov-15 22:04N 57°52' W 001°37'113.4
2017-Nov-15 22:00N 57°51' W 001°37'713.1
2017-Nov-15 21:30N 57°44' W 001°37'612.9
2017-Nov-15 21:00N 57°38' W 001°37'613.0
2017-Nov-15 20:30N 57°31' W 001°37'1517.0
2017-Nov-15 19:39N 57°18' W 001°50'318.9
2017-Nov-15 19:30N 57°16' W 001°53'918.3
2017-Nov-15 19:00N 57°09' W 002°03'1 2.8
2017-Nov-15 18:30N 57°09' W 002°05'0 0.0
2017-Nov-15 18:00N 57°09' W 002°05'0 0.0
2017-Nov-15 17:30N 57°09' W 002°05'0 0.0
2017-Nov-15 17:00N 57°09' W 002°05'0 0.0
2017-Nov-15 16:30N 57°09' W 002°05'0 0.0
2017-Nov-15 16:00N 57°09' W 002°05'0 0.0
2017-Nov-15 15:30N 57°09' W 002°05'0 0.0
2017-Nov-15 15:00N 57°09' W 002°05'0 0.0
2017-Nov-15 14:30N 57°09' W 002°05'0 0.0
2017-Nov-15 14:00N 57°09' W 002°05'0 0.0
2017-Nov-15 13:30N 57°09' W 002°05'0 0.0
2017-Nov-15 13:00N 57°09' W 002°05'0 0.0
2017-Nov-15 12:30N 57°09' W 002°05'0 0.0
2017-Nov-15 12:00N 57°09' W 002°05'0 0.0
2017-Nov-15 11:30N 57°09' W 002°05'0 0.0
2017-Nov-15 11:00N 57°09' W 002°05'0 0.0
2017-Nov-15 10:30N 57°09' W 002°05'0 0.0
2017-Nov-15 10:00N 57°09' W 002°05'0 0.0
2017-Nov-15 09:30N 57°09' W 002°05'0 0.0
2017-Nov-15 09:00N 57°09' W 002°05'0 0.0
2017-Nov-15 08:30N 57°09' W 002°05'0 0.0
2017-Nov-15 08:00N 57°09' W 002°05'0 0.0
2017-Nov-15 07:30N 57°09' W 002°05'0 0.0
2017-Nov-15 07:00N 57°09' W 002°05'1 1.3
2017-Nov-15 06:30N 57°08' W 002°04'713.0
2017-Nov-15 06:00N 57°13' W 001°56'815.9
2017-Nov-15 05:29N 57°20' W 001°47'715.6
2017-Nov-15 05:00N 57°27' W 001°41'816.0
2017-Nov-15 04:30N 57°35' W 001°39'17 0.6
2017-Nov-13 22:18N 57°52' W 001°37'514.5
2017-Nov-13 21:59N 57°47' W 001°37'81 1.8
2017-Nov-12 01:41N 59°04' W 002°28'213.8
2017-Nov-12 01:30N 59°02' W 002°31'612.8
2017-Nov-12 01:00N 59°00' W 002°43'714.2
2017-Nov-12 00:30N 59°01' W 002°56'2 3.2
2017-Nov-11 23:57N 58°60' W 002°58'0 0.0
2017-Nov-11 23:30N 58°60' W 002°58'0 0.3
2017-Nov-11 23:00N 58°60' W 002°58'917.7
2017-Nov-11 22:30N 58°59' W 002°41'7222.2
2017-Nov-11 19:17N 57°52' W 001°55'621.1
2017-Nov-11 19:00N 57°46' W 001°52'1020.5
2017-Nov-11 18:30N 57°36' W 001°45'1020.9
2017-Nov-11 18:00N 57°26' W 001°44'1122.1
2017-Nov-11 17:30N 57°16' W 001°52'1019.6
2017-Nov-11 17:00N 57°08' W 002°04'1 1.4
2017-Nov-11 16:30N 57°09' W 002°05'0 0.0
2017-Nov-11 16:00N 57°09' W 002°05'0 0.0
2017-Nov-11 15:30N 57°09' W 002°05'0 0.0
2017-Nov-11 15:00N 57°09' W 002°05'0 0.0
2017-Nov-11 14:30N 57°09' W 002°05'0 0.0
2017-Nov-11 14:00N 57°09' W 002°05'0 0.0
2017-Nov-11 13:30N 57°09' W 002°05'0 0.0
2017-Nov-11 13:00N 57°09' W 002°05'0 0.0
2017-Nov-11 12:30N 57°09' W 002°05'0 0.0
2017-Nov-11 12:00N 57°09' W 002°05'0 0.0
2017-Nov-11 11:30N 57°09' W 002°05'0 0.0
2017-Nov-11 11:00N 57°09' W 002°05'0 0.0
2017-Nov-11 10:30N 57°09' W 002°05'0 0.0
2017-Nov-11 10:00N 57°09' W 002°05'0 0.0
2017-Nov-11 09:30N 57°09' W 002°05'0 0.0
2017-Nov-11 09:00N 57°09' W 002°05'0 0.0
2017-Nov-11 08:30N 57°09' W 002°05'0 0.0
2017-Nov-11 08:00N 57°09' W 002°05'0 0.0
2017-Nov-11 07:30N 57°09' W 002°05'0 0.0
2017-Nov-11 07:00N 57°09' W 002°05'1 1.5
2017-Nov-11 06:30N 57°09' W 002°04'510.7
2017-Nov-11 06:00N 57°12' W 001°57'916.1
2017-Nov-11 05:27N 57°20' W 001°48'918.4
2017-Nov-11 04:58N 57°27' W 001°39'918.9
2017-Nov-11 04:28N 57°36' W 001°41'1118.3
2017-Nov-11 03:53N 57°47' W 001°45'7622.0
2017-Nov-11 00:25N 58°58' W 002°39'922.1
2017-Nov-11 00:00N 59°01' W 002°55'2 1.5
2017-Nov-10 22:39N 58°60' W 002°58'0 0.0
2017-Nov-10 22:05N 58°60' W 002°58'0 0.6
2017-Nov-10 22:00N 58°60' W 002°58'815.8
2017-Nov-10 21:30N 59°01' W 002°43'9 0.5
2017-Nov-10 02:39N 59°05' W 002°27'217.5
2017-Nov-10 02:30N 59°03' W 002°30'917.2
2017-Nov-10 02:00N 59°01' W 002°46'6 7.9
2017-Nov-10 01:12N 58°60' W 002°58'0 0.0
2017-Nov-10 00:59N 58°60' W 002°58'  

Dump ship's entire track history